sensor_id;sensor_type;location;lat;lon;timestamp;P1;durP1;ratioP1;P2;durP2;ratioP2
22378;SDS011;11357;49.990;7.370;2023-04-23T00:01:03;1511.40;;;810.27;;
22378;SDS011;11357;49.990;7.370;2023-04-23T00:03:30;1427.23;;;787.00;;
22378;SDS011;11357;49.990;7.370;2023-04-23T00:06:03;1390.13;;;792.83;;
22378;SDS011;11357;49.990;7.370;2023-04-23T00:08:30;1290.50;;;748.50;;
22378;SDS011;11357;49.990;7.370;2023-04-23T00:10:56;1357.37;;;754.07;;
22378;SDS011;11357;49.990;7.370;2023-04-23T00:13:23;1333.07;;;752.47;;
22378;SDS011;11357;49.990;7.370;2023-04-23T00:15:49;1456.73;;;778.30;;
22378;SDS011;11357;49.990;7.370;2023-04-23T00:18:15;1456.23;;;818.97;;
22378;SDS011;11357;49.990;7.370;2023-04-23T00:20:44;1819.97;;;924.97;;
22378;SDS011;11357;49.990;7.370;2023-04-23T00:23:09;1512.20;;;819.20;;
22378;SDS011;11357;49.990;7.370;2023-04-23T00:25:35;1465.37;;;785.10;;
22378;SDS011;11357;49.990;7.370;2023-04-23T00:28:01;1474.93;;;782.33;;
22378;SDS011;11357;49.990;7.370;2023-04-23T00:30:27;1404.20;;;799.57;;
22378;SDS011;11357;49.990;7.370;2023-04-23T00:32:52;1483.80;;;821.77;;
22378;SDS011;11357;49.990;7.370;2023-04-23T00:35:18;1432.90;;;807.27;;
22378;SDS011;11357;49.990;7.370;2023-04-23T00:37:44;1476.97;;;818.23;;
22378;SDS011;11357;49.990;7.370;2023-04-23T00:40:10;1512.97;;;835.50;;
22378;SDS011;11357;49.990;7.370;2023-04-23T00:42:37;1512.10;;;796.13;;
22378;SDS011;11357;49.990;7.370;2023-04-23T00:45:04;1599.07;;;816.67;;
22378;SDS011;11357;49.990;7.370;2023-04-23T00:47:32;1465.80;;;799.27;;
22378;SDS011;11357;49.990;7.370;2023-04-23T00:49:58;1476.33;;;834.87;;
22378;SDS011;11357;49.990;7.370;2023-04-23T00:52:25;1591.33;;;836.43;;
22378;SDS011;11357;49.990;7.370;2023-04-23T00:54:50;1460.80;;;807.37;;
22378;SDS011;11357;49.990;7.370;2023-04-23T00:57:16;1443.90;;;806.07;;
22378;SDS011;11357;49.990;7.370;2023-04-23T00:59:42;1315.00;;;782.53;;
22378;SDS011;11357;49.990;7.370;2023-04-23T01:02:08;1483.53;;;825.57;;
22378;SDS011;11357;49.990;7.370;2023-04-23T01:04:34;1399.40;;;778.07;;
22378;SDS011;11357;49.990;7.370;2023-04-23T01:07:02;1675.77;;;839.63;;
22378;SDS011;11357;49.990;7.370;2023-04-23T01:09:28;1859.00;;;886.63;;
22378;SDS011;11357;49.990;7.370;2023-04-23T01:11:56;1767.40;;;884.13;;
22378;SDS011;11357;49.990;7.370;2023-04-23T01:16:50;1623.97;;;852.50;;
22378;SDS011;11357;49.990;7.370;2023-04-23T01:19:16;1708.70;;;843.70;;
22378;SDS011;11357;49.990;7.370;2023-04-23T01:21:42;1812.00;;;851.87;;
22378;SDS011;11357;49.990;7.370;2023-04-23T01:24:09;1691.90;;;846.37;;
22378;SDS011;11357;49.990;7.370;2023-04-23T01:26:35;1635.97;;;824.80;;
22378;SDS011;11357;49.990;7.370;2023-04-23T01:29:01;1850.03;;;863.37;;
22378;SDS011;11357;49.990;7.370;2023-04-23T01:31:27;1921.40;;;914.63;;
22378;SDS011;11357;49.990;7.370;2023-04-23T01:33:54;1839.67;;;866.27;;
22378;SDS011;11357;49.990;7.370;2023-04-23T01:36:21;1823.33;;;883.20;;
22378;SDS011;11357;49.990;7.370;2023-04-23T01:38:51;1795.80;;;859.80;;
22378;SDS011;11357;49.990;7.370;2023-04-23T01:41:17;1777.70;;;840.50;;
22378;SDS011;11357;49.990;7.370;2023-04-23T01:43:44;1937.23;;;876.47;;
22378;SDS011;11357;49.990;7.370;2023-04-23T01:46:10;1776.67;;;876.23;;
22378;SDS011;11357;49.990;7.370;2023-04-23T01:48:37;1873.87;;;867.97;;
22378;SDS011;11357;49.990;7.370;2023-04-23T01:51:03;1909.43;;;887.93;;
22378;SDS011;11357;49.990;7.370;2023-04-23T01:53:28;1775.73;;;862.63;;
22378;SDS011;11357;49.990;7.370;2023-04-23T01:55:54;1878.67;;;908.63;;
22378;SDS011;11357;49.990;7.370;2023-04-23T01:58:20;1902.80;;;885.43;;
22378;SDS011;11357;49.990;7.370;2023-04-23T02:00:47;1998.40;;;882.50;;
22378;SDS011;11357;49.990;7.370;2023-04-23T02:03:13;1920.00;;;869.43;;
22378;SDS011;11357;49.990;7.370;2023-04-23T02:05:39;1975.60;;;887.40;;
22378;SDS011;11357;49.990;7.370;2023-04-23T02:08:06;1999.90;;;929.47;;
22378;SDS011;11357;49.990;7.370;2023-04-23T02:10:31;1999.90;;;910.03;;
22378;SDS011;11357;49.990;7.370;2023-04-23T02:12:57;1999.90;;;907.37;;
22378;SDS011;11357;49.990;7.370;2023-04-23T02:15:24;1988.30;;;915.40;;
22378;SDS011;11357;49.990;7.370;2023-04-23T02:17:49;1987.57;;;873.60;;
22378;SDS011;11357;49.990;7.370;2023-04-23T02:20:16;1999.90;;;878.27;;
22378;SDS011;11357;49.990;7.370;2023-04-23T02:22:42;1999.90;;;864.53;;
22378;SDS011;11357;49.990;7.370;2023-04-23T02:25:10;1837.10;;;878.70;;
22378;SDS011;11357;49.990;7.370;2023-04-23T02:27:36;1971.40;;;885.93;;
22378;SDS011;11357;49.990;7.370;2023-04-23T02:30:01;1957.83;;;894.57;;
22378;SDS011;11357;49.990;7.370;2023-04-23T02:32:28;1999.90;;;886.90;;
22378;SDS011;11357;49.990;7.370;2023-04-23T02:34:53;1971.07;;;899.50;;
22378;SDS011;11357;49.990;7.370;2023-04-23T02:37:20;1977.03;;;874.37;;
22378;SDS011;11357;49.990;7.370;2023-04-23T02:39:45;1999.90;;;885.63;;
22378;SDS011;11357;49.990;7.370;2023-04-23T02:42:11;1969.73;;;880.23;;
22378;SDS011;11357;49.990;7.370;2023-04-23T02:44:37;1945.27;;;882.80;;
22378;SDS011;11357;49.990;7.370;2023-04-23T02:47:03;1999.90;;;917.80;;
22378;SDS011;11357;49.990;7.370;2023-04-23T02:49:28;1947.10;;;886.63;;
22378;SDS011;11357;49.990;7.370;2023-04-23T02:51:54;1988.63;;;881.23;;
22378;SDS011;11357;49.990;7.370;2023-04-23T02:54:20;1999.90;;;892.60;;
22378;SDS011;11357;49.990;7.370;2023-04-23T02:56:46;1982.10;;;908.80;;
22378;SDS011;11357;49.990;7.370;2023-04-23T02:59:12;1999.90;;;920.10;;
22378;SDS011;11357;49.990;7.370;2023-04-23T03:01:37;1982.27;;;904.23;;
22378;SDS011;11357;49.990;7.370;2023-04-23T03:04:03;1961.30;;;890.10;;
22378;SDS011;11357;49.990;7.370;2023-04-23T03:06:29;1999.90;;;913.90;;
22378;SDS011;11357;49.990;7.370;2023-04-23T03:08:56;1999.90;;;916.60;;
22378;SDS011;11357;49.990;7.370;2023-04-23T03:11:21;1999.90;;;921.93;;
22378;SDS011;11357;49.990;7.370;2023-04-23T03:55:21;1999.90;;;865.00;;
22378;SDS011;11357;49.990;7.370;2023-04-23T03:57:47;1999.90;;;898.43;;
22378;SDS011;11357;49.990;7.370;2023-04-23T04:00:12;1999.90;;;825.13;;
22378;SDS011;11357;49.990;7.370;2023-04-23T04:02:38;1999.90;;;807.03;;
22378;SDS011;11357;49.990;7.370;2023-04-23T04:05:05;1999.90;;;788.50;;
22378;SDS011;11357;49.990;7.370;2023-04-23T04:07:31;1999.90;;;812.97;;
22378;SDS011;11357;49.990;7.370;2023-04-23T04:09:57;1999.90;;;848.80;;
22378;SDS011;11357;49.990;7.370;2023-04-23T04:12:23;1999.90;;;815.77;;
22378;SDS011;11357;49.990;7.370;2023-04-23T04:14:49;1999.90;;;813.60;;
22378;SDS011;11357;49.990;7.370;2023-04-23T04:17:15;1999.90;;;757.67;;
22378;SDS011;11357;49.990;7.370;2023-04-23T04:19:41;1999.90;;;751.27;;
22378;SDS011;11357;49.990;7.370;2023-04-23T04:22:07;1999.90;;;779.07;;
22378;SDS011;11357;49.990;7.370;2023-04-23T04:24:33;1999.90;;;823.33;;
22378;SDS011;11357;49.990;7.370;2023-04-23T04:26:59;1999.90;;;827.77;;
22378;SDS011;11357;49.990;7.370;2023-04-23T04:29:25;1999.90;;;810.20;;
22378;SDS011;11357;49.990;7.370;2023-04-23T04:31:52;1999.90;;;802.87;;
22378;SDS011;11357;49.990;7.370;2023-04-23T04:34:18;1999.90;;;771.67;;
22378;SDS011;11357;49.990;7.370;2023-04-23T04:36:44;1999.90;;;810.53;;
22378;SDS011;11357;49.990;7.370;2023-04-23T04:39:10;1999.90;;;737.93;;
22378;SDS011;11357;49.990;7.370;2023-04-23T04:41:38;1999.90;;;697.40;;
22378;SDS011;11357;49.990;7.370;2023-04-23T04:44:05;1999.90;;;822.73;;
22378;SDS011;11357;49.990;7.370;2023-04-23T04:46:32;1999.90;;;732.37;;
22378;SDS011;11357;49.990;7.370;2023-04-23T04:48:59;1999.90;;;737.27;;
22378;SDS011;11357;49.990;7.370;2023-04-23T04:51:24;1999.90;;;780.17;;
22378;SDS011;11357;49.990;7.370;2023-04-23T04:53:51;1999.90;;;850.73;;
22378;SDS011;11357;49.990;7.370;2023-04-23T04:56:17;1999.90;;;873.97;;
22378;SDS011;11357;49.990;7.370;2023-04-23T04:58:42;1999.90;;;886.40;;
22378;SDS011;11357;49.990;7.370;2023-04-23T05:01:08;1999.90;;;919.27;;
22378;SDS011;11357;49.990;7.370;2023-04-23T05:03:34;1999.90;;;889.80;;
22378;SDS011;11357;49.990;7.370;2023-04-23T05:06:01;1999.90;;;905.20;;
22378;SDS011;11357;49.990;7.370;2023-04-23T05:08:26;1999.90;;;902.33;;
22378;SDS011;11357;49.990;7.370;2023-04-23T05:10:52;1999.90;;;922.90;;
22378;SDS011;11357;49.990;7.370;2023-04-23T05:13:18;1999.90;;;957.50;;
22378;SDS011;11357;49.990;7.370;2023-04-23T05:15:44;1999.90;;;968.33;;
22378;SDS011;11357;49.990;7.370;2023-04-23T05:18:10;1999.90;;;941.13;;
22378;SDS011;11357;49.990;7.370;2023-04-23T05:20:36;1999.90;;;967.17;;
22378;SDS011;11357;49.990;7.370;2023-04-23T05:23:02;1999.90;;;943.77;;
22378;SDS011;11357;49.990;7.370;2023-04-23T05:25:28;1999.90;;;892.60;;
22378;SDS011;11357;49.990;7.370;2023-04-23T05:27:55;1999.90;;;910.10;;
22378;SDS011;11357;49.990;7.370;2023-04-23T05:30:21;1999.90;;;879.13;;
22378;SDS011;11357;49.990;7.370;2023-04-23T05:32:48;1999.90;;;810.13;;
22378;SDS011;11357;49.990;7.370;2023-04-23T05:35:14;1999.90;;;842.97;;
22378;SDS011;11357;49.990;7.370;2023-04-23T05:37:40;1999.90;;;868.40;;
22378;SDS011;11357;49.990;7.370;2023-04-23T05:40:06;1999.90;;;850.10;;
22378;SDS011;11357;49.990;7.370;2023-04-23T05:42:33;1999.90;;;836.10;;
22378;SDS011;11357;49.990;7.370;2023-04-23T05:45:00;1999.90;;;868.10;;
22378;SDS011;11357;49.990;7.370;2023-04-23T05:47:26;1999.90;;;895.90;;
22378;SDS011;11357;49.990;7.370;2023-04-23T05:49:52;1999.90;;;861.13;;
22378;SDS011;11357;49.990;7.370;2023-04-23T05:52:18;1999.90;;;868.27;;
22378;SDS011;11357;49.990;7.370;2023-04-23T05:54:44;1999.90;;;869.93;;
22378;SDS011;11357;49.990;7.370;2023-04-23T05:57:10;1999.90;;;890.03;;
22378;SDS011;11357;49.990;7.370;2023-04-23T05:59:36;1999.90;;;898.07;;
22378;SDS011;11357;49.990;7.370;2023-04-23T06:02:01;1999.90;;;914.90;;
22378;SDS011;11357;49.990;7.370;2023-04-23T06:04:27;1999.90;;;886.33;;
22378;SDS011;11357;49.990;7.370;2023-04-23T06:06:53;1999.90;;;904.47;;
22378;SDS011;11357;49.990;7.370;2023-04-23T06:09:18;1999.90;;;853.33;;
22378;SDS011;11357;49.990;7.370;2023-04-23T06:11:44;1999.90;;;807.83;;
22378;SDS011;11357;49.990;7.370;2023-04-23T06:14:10;1999.90;;;864.60;;
22378;SDS011;11357;49.990;7.370;2023-04-23T06:16:35;1999.90;;;929.83;;
22378;SDS011;11357;49.990;7.370;2023-04-23T06:19:02;1999.90;;;908.03;;
22378;SDS011;11357;49.990;7.370;2023-04-23T06:21:28;1999.90;;;932.03;;
22378;SDS011;11357;49.990;7.370;2023-04-23T06:23:53;1999.90;;;903.40;;
22378;SDS011;11357;49.990;7.370;2023-04-23T06:26:19;1999.90;;;907.23;;
22378;SDS011;11357;49.990;7.370;2023-04-23T06:28:45;1999.90;;;847.43;;
22378;SDS011;11357;49.990;7.370;2023-04-23T06:31:11;1999.90;;;845.63;;
22378;SDS011;11357;49.990;7.370;2023-04-23T06:33:37;1999.90;;;732.87;;
22378;SDS011;11357;49.990;7.370;2023-04-23T06:36:03;1999.90;;;603.50;;
22378;SDS011;11357;49.990;7.370;2023-04-23T06:38:29;1999.90;;;721.37;;
22378;SDS011;11357;49.990;7.370;2023-04-23T06:40:55;1798.37;;;372.43;;
22378;SDS011;11357;49.990;7.370;2023-04-23T06:43:23;1999.90;;;553.47;;
22378;SDS011;11357;49.990;7.370;2023-04-23T06:45:49;1999.90;;;593.67;;
22378;SDS011;11357;49.990;7.370;2023-04-23T06:48:15;1999.90;;;999.90;;
22378;SDS011;11357;49.990;7.370;2023-04-23T06:50:42;1999.90;;;999.90;;
22378;SDS011;11357;49.990;7.370;2023-04-23T06:53:08;1999.90;;;999.90;;
22378;SDS011;11357;49.990;7.370;2023-04-23T06:55:34;1999.90;;;999.90;;
22378;SDS011;11357;49.990;7.370;2023-04-23T06:58:00;1999.90;;;999.90;;
22378;SDS011;11357;49.990;7.370;2023-04-23T07:00:25;1999.90;;;850.43;;
22378;SDS011;11357;49.990;7.370;2023-04-23T07:02:51;1999.90;;;550.70;;
22378;SDS011;11357;49.990;7.370;2023-04-23T07:05:17;1999.90;;;708.70;;
22378;SDS011;11357;49.990;7.370;2023-04-23T07:07:43;1945.00;;;514.30;;
22378;SDS011;11357;49.990;7.370;2023-04-23T07:10:11;1999.90;;;825.90;;
22378;SDS011;11357;49.990;7.370;2023-04-23T07:12:37;1999.90;;;893.53;;
22378;SDS011;11357;49.990;7.370;2023-04-23T07:15:04;1999.90;;;564.57;;
22378;SDS011;11357;49.990;7.370;2023-04-23T07:17:30;1999.90;;;813.40;;
22378;SDS011;11357;49.990;7.370;2023-04-23T07:19:56;1999.90;;;860.20;;
22378;SDS011;11357;49.990;7.370;2023-04-23T07:22:22;1999.90;;;891.63;;
22378;SDS011;11357;49.990;7.370;2023-04-23T07:24:49;1999.90;;;870.60;;
22378;SDS011;11357;49.990;7.370;2023-04-23T07:27:15;1999.90;;;780.57;;
22378;SDS011;11357;49.990;7.370;2023-04-23T07:29:40;1999.90;;;786.70;;
22378;SDS011;11357;49.990;7.370;2023-04-23T07:32:06;1999.90;;;828.53;;
22378;SDS011;11357;49.990;7.370;2023-04-23T07:34:32;1960.13;;;497.57;;
22378;SDS011;11357;49.990;7.370;2023-04-23T07:36:57;1999.90;;;682.87;;
22378;SDS011;11357;49.990;7.370;2023-04-23T07:39:23;1999.90;;;672.13;;
22378;SDS011;11357;49.990;7.370;2023-04-23T07:41:49;1999.90;;;673.60;;
22378;SDS011;11357;49.990;7.370;2023-04-23T07:44:15;1999.90;;;999.90;;
22378;SDS011;11357;49.990;7.370;2023-04-23T07:46:40;1999.90;;;999.90;;
22378;SDS011;11357;49.990;7.370;2023-04-23T07:49:06;1878.90;;;796.40;;
22378;SDS011;11357;49.990;7.370;2023-04-23T07:51:32;1999.90;;;942.53;;
22378;SDS011;11357;49.990;7.370;2023-04-23T07:53:58;1999.90;;;853.57;;
22378;SDS011;11357;49.990;7.370;2023-04-23T07:56:23;1999.90;;;999.90;;
22378;SDS011;11357;49.990;7.370;2023-04-23T07:58:49;1999.90;;;999.90;;
22378;SDS011;11357;49.990;7.370;2023-04-23T08:01:17;1999.90;;;999.90;;
22378;SDS011;11357;49.990;7.370;2023-04-23T08:03:43;1999.90;;;826.17;;
22378;SDS011;11357;49.990;7.370;2023-04-23T08:06:09;1999.90;;;999.90;;
22378;SDS011;11357;49.990;7.370;2023-04-23T08:08:36;1999.90;;;999.90;;
22378;SDS011;11357;49.990;7.370;2023-04-23T08:11:02;1999.90;;;999.90;;
22378;SDS011;11357;49.990;7.370;2023-04-23T08:13:29;1999.90;;;999.90;;
22378;SDS011;11357;49.990;7.370;2023-04-23T08:15:55;1905.77;;;781.87;;
22378;SDS011;11357;49.990;7.370;2023-04-23T08:18:20;1999.90;;;826.13;;
22378;SDS011;11357;49.990;7.370;2023-04-23T08:20:46;1999.90;;;966.47;;
22378;SDS011;11357;49.990;7.370;2023-04-23T08:23:13;960.53;;;727.70;;
22378;SDS011;11357;49.990;7.370;2023-04-23T08:25:38;628.43;;;536.67;;
22378;SDS011;11357;49.990;7.370;2023-04-23T08:28:04;981.20;;;785.10;;
22378;SDS011;11357;49.990;7.370;2023-04-23T08:30:30;25.67;;;24.03;;
22378;SDS011;11357;49.990;7.370;2023-04-23T08:32:56;9.23;;;8.40;;
22378;SDS011;11357;49.990;7.370;2023-04-23T08:35:22;5.03;;;4.53;;
22378;SDS011;11357;49.990;7.370;2023-04-23T08:37:48;7.30;;;3.67;;
22378;SDS011;11357;49.990;7.370;2023-04-23T08:40:13;5.65;;;3.30;;
22378;SDS011;11357;49.990;7.370;2023-04-23T08:42:50;3.75;;;2.75;;
22378;SDS011;11357;49.990;7.370;2023-04-23T08:45:21;5.25;;;3.60;;
22378;SDS011;11357;49.990;7.370;2023-04-23T08:47:48;5.82;;;3.40;;
22378;SDS011;11357;49.990;7.370;2023-04-23T08:50:14;5.68;;;4.13;;
22378;SDS011;11357;49.990;7.370;2023-04-23T08:53:03;6.22;;;4.78;;
22378;SDS011;11357;49.990;7.370;2023-04-23T08:55:28;4.78;;;4.00;;
22378;SDS011;11357;49.990;7.370;2023-04-23T08:57:54;5.25;;;4.05;;
22378;SDS011;11357;49.990;7.370;2023-04-23T09:00:22;8.15;;;5.30;;
22378;SDS011;11357;49.990;7.370;2023-04-23T09:02:49;9.27;;;8.35;;
22378;SDS011;11357;49.990;7.370;2023-04-23T09:05:15;11.82;;;10.55;;
22378;SDS011;11357;49.990;7.370;2023-04-23T09:07:41;8.93;;;7.50;;
22378;SDS011;11357;49.990;7.370;2023-04-23T09:10:08;12.38;;;7.15;;
22378;SDS011;11357;49.990;7.370;2023-04-23T09:12:36;7.90;;;6.63;;
22378;SDS011;11357;49.990;7.370;2023-04-23T09:15:05;9.88;;;6.90;;
22378;SDS011;11357;49.990;7.370;2023-04-23T09:17:39;7.03;;;6.32;;
22378;SDS011;11357;49.990;7.370;2023-04-23T09:20:10;11.15;;;7.45;;
22378;SDS011;11357;49.990;7.370;2023-04-23T09:22:40;7.95;;;6.45;;
22378;SDS011;11357;49.990;7.370;2023-04-23T09:25:14;9.50;;;6.35;;
22378;SDS011;11357;49.990;7.370;2023-04-23T09:27:41;10.07;;;6.32;;
22378;SDS011;11357;49.990;7.370;2023-04-23T09:30:08;8.50;;;6.28;;
22378;SDS011;11357;49.990;7.370;2023-04-23T09:32:35;8.50;;;6.93;;
22378;SDS011;11357;49.990;7.370;2023-04-23T09:35:02;7.32;;;6.50;;
22378;SDS011;11357;49.990;7.370;2023-04-23T09:37:29;9.75;;;6.30;;
22378;SDS011;11357;49.990;7.370;2023-04-23T09:40:03;10.18;;;6.90;;
22378;SDS011;11357;49.990;7.370;2023-04-23T09:42:33;7.50;;;6.47;;
22378;SDS011;11357;49.990;7.370;2023-04-23T09:45:05;9.00;;;5.47;;
22378;SDS011;11357;49.990;7.370;2023-04-23T09:47:39;10.05;;;6.72;;
22378;SDS011;11357;49.990;7.370;2023-04-23T09:50:12;10.13;;;4.80;;
22378;SDS011;11357;49.990;7.370;2023-04-23T09:52:38;5.68;;;4.05;;
22378;SDS011;11357;49.990;7.370;2023-04-23T09:55:05;8.68;;;5.22;;
22378;SDS011;11357;49.990;7.370;2023-04-23T09:57:39;7.05;;;4.40;;
22378;SDS011;11357;49.990;7.370;2023-04-23T10:00:15;4.78;;;3.70;;
22378;SDS011;11357;49.990;7.370;2023-04-23T10:02:46;7.45;;;3.38;;
22378;SDS011;11357;49.990;7.370;2023-04-23T10:10:24;6.65;;;2.83;;
22378;SDS011;11357;49.990;7.370;2023-04-23T10:12:50;4.85;;;2.88;;
22378;SDS011;11357;49.990;7.370;2023-04-23T10:15:22;5.15;;;2.67;;
22378;SDS011;11357;49.990;7.370;2023-04-23T10:17:50;3.80;;;2.50;;
22378;SDS011;11357;49.990;7.370;2023-04-23T10:20:17;9.55;;;2.95;;
22378;SDS011;11357;49.990;7.370;2023-04-23T10:22:46;5.75;;;2.60;;
22378;SDS011;11357;49.990;7.370;2023-04-23T10:25:12;5.70;;;2.70;;
22378;SDS011;11357;49.990;7.370;2023-04-23T10:27:39;4.65;;;2.50;;
22378;SDS011;11357;49.990;7.370;2023-04-23T10:30:10;4.53;;;2.67;;
22378;SDS011;11357;49.990;7.370;2023-04-23T10:32:47;4.53;;;2.90;;
22378;SDS011;11357;49.990;7.370;2023-04-23T10:42:55;5.20;;;2.42;;
22378;SDS011;11357;49.990;7.370;2023-04-23T10:45:21;3.30;;;2.92;;
22378;SDS011;11357;49.990;7.370;2023-04-23T10:47:47;3.58;;;2.38;;
22378;SDS011;11357;49.990;7.370;2023-04-23T10:50:25;3.30;;;2.90;;
22378;SDS011;11357;49.990;7.370;2023-04-23T10:52:53;4.45;;;2.70;;
22378;SDS011;11357;49.990;7.370;2023-04-23T10:55:21;2.80;;;2.20;;
22378;SDS011;11357;49.990;7.370;2023-04-23T11:00:21;6.97;;;3.63;;
22378;SDS011;11357;49.990;7.370;2023-04-23T11:02:47;2.90;;;2.40;;
22378;SDS011;11357;49.990;7.370;2023-04-23T11:05:15;4.47;;;2.33;;
22378;SDS011;11357;49.990;7.370;2023-04-23T11:07:41;3.38;;;2.30;;
22378;SDS011;11357;49.990;7.370;2023-04-23T11:10:25;3.80;;;1.80;;
22378;SDS011;11357;49.990;7.370;2023-04-23T11:12:51;7.80;;;2.33;;
22378;SDS011;11357;49.990;7.370;2023-04-23T11:15:20;3.58;;;2.30;;
22378;SDS011;11357;49.990;7.370;2023-04-23T11:20:13;2.22;;;1.65;;
22378;SDS011;11357;49.990;7.370;2023-04-23T11:22:43;2.60;;;1.80;;
22378;SDS011;11357;49.990;7.370;2023-04-23T11:25:14;4.95;;;1.90;;
22378;SDS011;11357;49.990;7.370;2023-04-23T11:27:46;3.78;;;1.92;;
22378;SDS011;11357;49.990;7.370;2023-04-23T11:30:14;4.35;;;1.77;;
22378;SDS011;11357;49.990;7.370;2023-04-23T11:32:46;6.07;;;2.03;;
22378;SDS011;11357;49.990;7.370;2023-04-23T11:35:19;2.97;;;1.83;;
22378;SDS011;11357;49.990;7.370;2023-04-23T11:37:47;4.25;;;1.88;;
22378;SDS011;11357;49.990;7.370;2023-04-23T11:40:14;7.70;;;2.10;;
22378;SDS011;11357;49.990;7.370;2023-04-23T11:42:47;4.70;;;2.10;;
22378;SDS011;11357;49.990;7.370;2023-04-23T11:45:24;3.90;;;1.80;;
22378;SDS011;11357;49.990;7.370;2023-04-23T11:47:52;3.45;;;1.70;;
22378;SDS011;11357;49.990;7.370;2023-04-23T11:50:28;6.90;;;2.15;;
22378;SDS011;11357;49.990;7.370;2023-04-23T11:52:56;4.13;;;1.35;;
22378;SDS011;11357;49.990;7.370;2023-04-23T11:55:28;2.83;;;1.45;;
22378;SDS011;11357;49.990;7.370;2023-04-23T11:57:55;1.58;;;1.42;;
22378;SDS011;11357;49.990;7.370;2023-04-23T12:00:21;3.38;;;1.30;;
22378;SDS011;11357;49.990;7.370;2023-04-23T12:02:55;3.22;;;1.30;;
22378;SDS011;11357;49.990;7.370;2023-04-23T12:05:26;3.08;;;1.35;;
22378;SDS011;11357;49.990;7.370;2023-04-23T12:07:51;1.90;;;1.35;;
22378;SDS011;11357;49.990;7.370;2023-04-23T12:10:18;6.65;;;1.50;;
22378;SDS011;11357;49.990;7.370;2023-04-23T12:12:48;3.72;;;1.30;;
22378;SDS011;11357;49.990;7.370;2023-04-23T12:15:17;3.00;;;1.30;;
22378;SDS011;11357;49.990;7.370;2023-04-23T12:17:47;3.53;;;1.17;;
22378;SDS011;11357;49.990;7.370;2023-04-23T12:20:32;4.35;;;1.25;;
22378;SDS011;11357;49.990;7.370;2023-04-23T12:23:02;3.22;;;1.40;;
22378;SDS011;11357;49.990;7.370;2023-04-23T12:25:29;3.30;;;1.63;;
22378;SDS011;11357;49.990;7.370;2023-04-23T12:27:57;5.18;;;1.42;;
22378;SDS011;11357;49.990;7.370;2023-04-23T12:30:29;2.80;;;1.50;;
22378;SDS011;11357;49.990;7.370;2023-04-23T12:33:02;2.38;;;1.45;;
22378;SDS011;11357;49.990;7.370;2023-04-23T12:35:56;3.05;;;1.85;;
22378;SDS011;11357;49.990;7.370;2023-04-23T12:38:23;3.58;;;1.70;;
22378;SDS011;11357;49.990;7.370;2023-04-23T12:40:55;2.70;;;1.55;;
22378;SDS011;11357;49.990;7.370;2023-04-23T12:43:23;5.15;;;1.83;;
22378;SDS011;11357;49.990;7.370;2023-04-23T12:45:50;5.97;;;2.50;;
22378;SDS011;11357;49.990;7.370;2023-04-23T12:48:16;3.83;;;1.35;;
22378;SDS011;11357;49.990;7.370;2023-04-23T12:50:45;3.10;;;1.35;;
22378;SDS011;11357;49.990;7.370;2023-04-23T12:53:11;2.17;;;1.00;;
22378;SDS011;11357;49.990;7.370;2023-04-23T12:55:37;2.67;;;1.05;;
22378;SDS011;11357;49.990;7.370;2023-04-23T12:58:04;4.90;;;1.00;;
22378;SDS011;11357;49.990;7.370;2023-04-23T13:00:30;0.95;;;0.85;;
22378;SDS011;11357;49.990;7.370;2023-04-23T13:02:56;4.47;;;1.13;;
22378;SDS011;11357;49.990;7.370;2023-04-23T13:05:22;3.60;;;1.38;;
22378;SDS011;11357;49.990;7.370;2023-04-23T13:07:48;4.38;;;1.55;;
22378;SDS011;11357;49.990;7.370;2023-04-23T13:10:14;1.88;;;1.17;;
22378;SDS011;11357;49.990;7.370;2023-04-23T13:12:39;2.75;;;1.60;;
22378;SDS011;11357;49.990;7.370;2023-04-23T13:15:06;3.55;;;1.70;;
22378;SDS011;11357;49.990;7.370;2023-04-23T13:17:33;4.18;;;1.40;;
22378;SDS011;11357;49.990;7.370;2023-04-23T13:20:00;3.25;;;1.25;;
22378;SDS011;11357;49.990;7.370;2023-04-23T13:22:26;4.90;;;1.02;;
22378;SDS011;11357;49.990;7.370;2023-04-23T13:24:55;2.42;;;1.10;;
22378;SDS011;11357;49.990;7.370;2023-04-23T13:27:23;1.67;;;0.90;;
22378;SDS011;11357;49.990;7.370;2023-04-23T13:29:50;1.83;;;1.20;;
22378;SDS011;11357;49.990;7.370;2023-04-23T13:32:15;1.70;;;1.10;;
22378;SDS011;11357;49.990;7.370;2023-04-23T13:34:41;1.35;;;0.90;;
22378;SDS011;11357;49.990;7.370;2023-04-23T13:37:07;1.77;;;1.02;;
22378;SDS011;11357;49.990;7.370;2023-04-23T13:39:34;2.75;;;1.20;;
22378;SDS011;11357;49.990;7.370;2023-04-23T13:42:03;2.45;;;1.08;;
22378;SDS011;11357;49.990;7.370;2023-04-23T13:44:32;4.15;;;1.02;;
22378;SDS011;11357;49.990;7.370;2023-04-23T13:46:58;2.88;;;1.35;;
22378;SDS011;11357;49.990;7.370;2023-04-23T13:49:24;2.30;;;1.25;;
22378;SDS011;11357;49.990;7.370;2023-04-23T13:51:51;2.20;;;1.08;;
22378;SDS011;11357;49.990;7.370;2023-04-23T13:54:22;5.00;;;1.33;;
22378;SDS011;11357;49.990;7.370;2023-04-23T13:56:52;4.10;;;1.40;;
22378;SDS011;11357;49.990;7.370;2023-04-23T13:59:19;3.97;;;2.08;;
22378;SDS011;11357;49.990;7.370;2023-04-23T14:01:45;5.03;;;1.27;;
22378;SDS011;11357;49.990;7.370;2023-04-23T14:04:13;2.22;;;1.13;;
22378;SDS011;11357;49.990;7.370;2023-04-23T14:06:39;1.73;;;1.15;;
22378;SDS011;11357;49.990;7.370;2023-04-23T14:09:05;2.40;;;1.08;;
22378;SDS011;11357;49.990;7.370;2023-04-23T14:11:31;3.92;;;1.13;;
22378;SDS011;11357;49.990;7.370;2023-04-23T14:13:57;1.52;;;1.00;;
22378;SDS011;11357;49.990;7.370;2023-04-23T14:16:25;2.15;;;1.20;;
22378;SDS011;11357;49.990;7.370;2023-04-23T14:18:51;3.00;;;1.23;;
22378;SDS011;11357;49.990;7.370;2023-04-23T14:21:17;2.30;;;0.90;;
22378;SDS011;11357;49.990;7.370;2023-04-23T14:24:17;3.00;;;1.13;;
22378;SDS011;11357;49.990;7.370;2023-04-23T14:26:56;1.83;;;1.15;;
22378;SDS011;11357;49.990;7.370;2023-04-23T14:29:29;3.25;;;1.33;;
22378;SDS011;11357;49.990;7.370;2023-04-23T14:31:56;3.00;;;1.05;;
22378;SDS011;11357;49.990;7.370;2023-04-23T14:34:22;2.90;;;1.02;;
22378;SDS011;11357;49.990;7.370;2023-04-23T14:36:48;3.00;;;1.20;;
22378;SDS011;11357;49.990;7.370;2023-04-23T14:39:16;2.33;;;1.10;;
22378;SDS011;11357;49.990;7.370;2023-04-23T14:41:42;2.35;;;1.00;;
22378;SDS011;11357;49.990;7.370;2023-04-23T14:44:08;1.55;;;1.08;;
22378;SDS011;11357;49.990;7.370;2023-04-23T14:46:34;2.03;;;1.23;;
22378;SDS011;11357;49.990;7.370;2023-04-23T14:49:00;2.63;;;1.13;;
22378;SDS011;11357;49.990;7.370;2023-04-23T14:51:25;1.80;;;1.08;;
22378;SDS011;11357;49.990;7.370;2023-04-23T14:53:51;2.08;;;1.17;;
22378;SDS011;11357;49.990;7.370;2023-04-23T14:56:17;2.30;;;1.15;;
22378;SDS011;11357;49.990;7.370;2023-04-23T14:58:43;1.33;;;1.20;;
22378;SDS011;11357;49.990;7.370;2023-04-23T15:01:09;3.78;;;1.17;;
22378;SDS011;11357;49.990;7.370;2023-04-23T15:03:35;2.72;;;0.95;;
22378;SDS011;11357;49.990;7.370;2023-04-23T15:06:01;1.58;;;1.17;;
22378;SDS011;11357;49.990;7.370;2023-04-23T15:08:27;2.88;;;1.17;;
22378;SDS011;11357;49.990;7.370;2023-04-23T15:10:53;2.28;;;1.08;;
22378;SDS011;11357;49.990;7.370;2023-04-23T15:13:29;4.82;;;0.80;;